Time;durP1;ratioP1;P1;durP2;ratioP2;P2;SDS_P1;SDS_P2;PMS_P1;PMS_P2;Temp;Humidity;BMP_temperature;BMP_pressure;BME280_temperature;BME280_humidity;BME280_pressure;Samples;Min_cycle;Max_cycle;Signal;HPM_P1;HPM_P2
2022/05/31 00:02:28;;;;;;;10.25;8.08;;;;;;;7.48;66.49;100273.67;2082514;85;29037;-68
2022/05/31 00:05:30;;;;;;;9.23;6.80;;;;;;;7.43;66.50;100270.73;2082571;85;31208;-68
2022/05/31 00:08:33;;;;;;;9.48;6.90;;;;;;;7.40;66.70;100272.18;2082120;85;34130;-70
2022/05/31 00:11:36;;;;;;;7.37;6.67;;;;;;;7.37;66.79;100276.28;2081845;85;30179;-70
2022/05/31 00:14:39;;;;;;;10.32;7.35;;;;;;;7.34;66.92;100273.73;2082214;85;27686;-70
2022/05/31 00:17:41;;;;;;;9.23;7.42;;;;;;;7.33;67.04;100280.45;2081971;85;29339;-69
2022/05/31 00:20:44;;;;;;;7.70;6.83;;;;;;;7.30;67.04;100280.08;2088174;84;31913;-69
2022/05/31 00:23:46;;;;;;;8.60;7.58;;;;;;;7.27;67.08;100288.22;2106723;84;33368;-69
2022/05/31 00:26:48;;;;;;;10.40;7.35;;;;;;;7.22;67.01;100285.69;2106817;84;30421;-69
2022/05/31 00:29:50;;;;;;;11.30;7.70;;;;;;;7.18;66.97;100292.08;2106869;84;27638;-68
2022/05/31 00:32:52;;;;;;;8.58;7.67;;;;;;;7.15;67.11;100290.38;2105457;84;28710;-67
2022/05/31 00:35:54;;;;;;;9.10;7.45;;;;;;;7.11;67.25;100292.77;2101061;84;32221;-67
2022/05/31 00:38:56;;;;;;;8.55;6.85;;;;;;;7.05;67.17;100286.31;2101001;84;33938;-68
2022/05/31 00:42:06;;;;;;;10.63;6.47;;;;;;;7.02;67.19;100285.56;2100925;84;29359;-68
2022/05/31 00:45:10;;;;;;;9.63;7.47;;;;;;;6.97;67.12;100285.69;2100237;84;27627;-70
2022/05/31 00:48:23;;;;;;;8.55;7.28;;;;;;;6.92;67.38;100292.52;2100961;84;28727;-69
2022/05/31 00:51:31;;;;;;;8.35;6.87;;;;;;;6.86;67.38;100287.42;2081489;84;31022;-68
2022/05/31 00:54:37;;;;;;;8.23;7.20;;;;;;;6.83;67.46;100295.52;2060216;86;32973;-70
2022/05/31 00:57:44;;;;;;;8.70;7.03;;;;;;;6.78;67.38;100299.67;2034327;87;29436;-68
2022/05/31 01:00:47;;;;;;;9.30;7.65;;;;;;;6.74;67.62;100307.34;2034346;87;27718;-69
2022/05/31 01:03:48;;;;;;;10.75;7.65;;;;;;;6.71;67.73;100304.78;2012612;88;29921;-70
2022/05/31 01:06:50;;;;;;;10.78;7.00;;;;;;;6.66;67.90;100304.05;2012883;88;31042;-67
2022/05/31 01:09:53;;;;;;;10.78;7.78;;;;;;;6.60;67.84;100301.62;2012813;88;33966;-67
2022/05/31 01:12:56;;;;;;;7.72;6.37;;;;;;;6.59;67.88;100305.20;2013040;88;28929;-67
2022/05/31 01:16:08;;;;;;;7.72;6.87;;;;;;;6.53;67.87;100308.46;2012654;88;27750;-65
2022/05/31 01:19:55;;;;;;;8.95;6.80;;;;;;;6.50;68.02;100312.55;2012695;88;29913;-66
2022/05/31 01:22:16;;;;;;;10.30;7.08;;;;;;;6.46;68.01;100311.37;2040229;86;31625;-68
2022/05/31 01:25:46;;;;;;;8.30;6.95;;;;;;;6.42;68.06;100312.38;2100965;84;34249;-68
2022/05/31 01:29:18;;;;;;;9.93;7.00;;;;;;;6.38;68.24;100310.30;2101196;84;30164;-67
2022/05/31 01:32:20;;;;;;;8.75;7.50;;;;;;;6.32;68.18;100311.36;2085355;85;27728;-67
2022/05/31 01:35:29;;;;;;;8.13;7.33;;;;;;;6.29;68.41;100310.59;2072644;85;29902;-67
2022/05/31 01:38:48;;;;;;;11.35;8.60;;;;;;;6.25;68.38;100308.95;2071408;85;30925;-69
2022/05/31 01:42:01;;;;;;;10.70;8.60;;;;;;;6.22;68.69;100312.11;2070998;85;32928;-68
2022/05/31 01:45:13;;;;;;;11.70;8.65;;;;;;;6.20;68.96;100312.61;2071132;85;29337;-69
2022/05/31 01:48:15;;;;;;;13.25;9.05;;;;;;;6.20;69.02;100323.73;2071376;85;27918;-70
2022/05/31 01:51:17;;;;;;;12.68;9.30;;;;;;;6.19;69.17;100322.84;2056188;85;30896;-70
2022/05/31 01:54:19;;;;;;;17.40;10.70;;;;;;;6.17;69.11;100319.83;2042774;85;32337;-68
2022/05/31 01:57:25;;;;;;;14.20;10.68;;;;;;;6.14;69.23;100318.11;2042236;87;33764;-66
2022/05/31 02:00:26;;;;;;;14.70;10.85;;;;;;;6.14;69.36;100321.25;2042018;87;30612;-69
2022/05/31 02:03:31;;;;;;;13.98;10.43;;;;;;;6.14;69.80;100318.11;2042323;87;27777;-68
2022/05/31 02:06:38;;;;;;;10.95;9.85;;;;;;;6.13;69.54;100312.38;2042429;87;28662;-67
2022/05/31 02:09:42;;;;;;;14.75;11.00;;;;;;;6.11;69.42;100314.69;2062323;86;32296;-68
2022/05/31 02:12:44;;;;;;;15.60;10.17;;;;;;;6.10;69.55;100311.61;2069059;86;32962;-69
2022/05/31 02:15:45;;;;;;;16.73;10.58;;;;;;;6.09;69.60;100310.76;2068928;85;29694;-68
2022/05/31 02:22:12;;;;;;;12.73;9.93;;;;;;;6.06;69.53;100321.48;2068748;86;29105;-68
2022/05/31 02:25:14;;;;;;;12.03;9.33;;;;;;;6.02;69.53;100317.17;2068918;86;31841;-68
2022/05/31 02:28:16;;;;;;;12.50;9.65;;;;;;;5.99;69.53;100318.11;2068666;86;33310;-68
2022/05/31 02:31:17;;;;;;;12.00;9.53;;;;;;;5.96;69.53;100319.53;2068992;85;29321;-68
2022/05/31 02:34:23;;;;;;;12.68;9.00;;;;;;;5.93;69.44;100321.83;2074352;85;27725;-67
2022/05/31 02:37:25;;;;;;;12.18;9.78;;;;;;;5.90;69.56;100324.58;2082460;85;28700;-68
2022/05/31 02:40:27;;;;;;;11.85;8.73;;;;;;;5.88;69.59;100325.08;2081756;85;32344;-68
2022/05/31 02:43:29;;;;;;;14.18;9.65;;;;;;;5.87;69.63;100318.02;2082531;85;33879;-69
2022/05/31 02:46:30;;;;;;;11.97;9.28;;;;;;;5.87;69.85;100318.49;2082121;85;29440;-69
2022/05/31 02:49:32;;;;;;;11.73;9.30;;;;;;;5.86;69.96;100320.27;2091702;84;27703;-68
2022/05/31 02:52:34;;;;;;;13.80;8.93;;;;;;;5.87;70.03;100316.69;2106459;84;30171;-67
2022/05/31 02:55:36;;;;;;;16.62;11.90;;;;;;;5.88;70.02;100313.11;2106684;84;31384;-67
2022/05/31 02:58:37;;;;;;;15.35;11.22;;;;;;;5.90;70.40;100313.94;2106281;84;33469;-67
2022/05/31 03:01:40;;;;;;;13.08;10.03;;;;;;;5.91;70.30;100321.45;2106822;84;30461;-67
2022/05/31 03:04:42;;;;;;;15.38;11.60;;;;;;;5.94;70.17;100325.34;2106511;84;27634;-66
2022/05/31 03:07:44;;;;;;;14.90;12.10;;;;;;;5.93;70.36;100317.84;2106387;84;30021;-66
2022/05/31 03:10:52;;;;;;;18.55;12.25;;;;;;;5.97;70.43;100321.27;2106491;84;31506;-67
2022/05/31 03:14:02;;;;;;;15.72;12.28;;;;;;;6.01;70.62;100322.08;2106803;84;33781;-67
2022/05/31 03:17:18;;;;;;;16.23;12.70;;;;;;;6.05;70.54;100329.05;2106892;84;29686;-67
2022/05/31 03:20:31;;;;;;;18.05;12.25;;;;;;;6.11;70.52;100326.21;2091151;84;27659;-68
2022/05/31 03:23:38;;;;;;;18.00;13.55;;;;;;;6.18;70.52;100326.42;2081933;85;29051;-69
2022/05/31 03:26:45;;;;;;;19.37;13.53;;;;;;;6.26;70.62;100329.31;2082079;85;31015;-68
2022/05/31 03:29:45;;;;;;;18.03;13.90;;;;;;;6.34;70.66;100336.58;2081474;85;34336;-68
2022/05/31 03:32:47;;;;;;;15.60;13.10;;;;;;;6.41;70.73;100334.14;2081769;85;30626;-68
2022/05/31 03:35:50;;;;;;;15.15;12.82;;;;;;;6.48;70.73;100337.00;2071197;84;27759;-69
2022/05/31 03:38:51;;;;;;;16.95;13.22;;;;;;;6.58;70.73;100338.05;2068621;85;29627;-67
2022/05/31 03:41:53;;;;;;;16.10;12.40;;;;;;;6.66;70.75;100336.00;2068631;86;31385;-69
2022/05/31 03:44:55;;;;;;;20.82;14.85;;;;;;;6.74;70.68;100336.63;2068258;86;34271;-68
2022/05/31 03:47:57;;;;;;;21.15;15.20;;;;;;;6.82;70.91;100333.23;2068702;86;30134;-69
2022/05/31 03:51:06;;;;;;;19.87;15.85;;;;;;;6.91;71.05;100336.05;2084299;85;27651;-68
2022/05/31 03:54:07;;;;;;;19.50;14.83;;;;;;;7.00;71.13;100332.20;2086931;85;28714;-68
2022/05/31 03:57:16;;;;;;;19.62;13.70;;;;;;;7.11;71.16;100333.17;2086785;84;31382;-68
2022/05/31 04:00:20;;;;;;;16.37;14.25;;;;;;;7.21;71.20;100339.05;2011441;88;33020;-68
2022/05/31 04:03:21;;;;;;;16.70;14.45;;;;;;;7.32;71.19;100342.19;2011783;87;29940;-67
2022/05/31 04:06:24;;;;;;;19.87;15.25;;;;;;;7.44;71.15;100342.23;2045984;87;27716;-68
2022/05/31 04:09:27;;;;;;;17.85;14.07;;;;;;;7.53;71.00;100349.02;2086231;84;27754;-66
2022/05/31 04:12:30;;;;;;;16.37;13.58;;;;;;;7.63;70.95;100354.89;2086966;85;31465;-69
2022/05/31 04:15:37;;;;;;;16.25;14.47;;;;;;;7.73;70.92;100349.61;2086734;85;34134;-67
2022/05/31 04:18:37;;;;;;;21.75;15.88;;;;;;;7.85;70.91;100356.30;2085579;84;28630;-68
2022/05/31 04:21:39;;;;;;;18.30;14.93;;;;;;;7.98;70.95;100366.91;2069018;86;28165;-66
2022/05/31 04:24:42;;;;;;;19.70;16.55;;;;;;;8.11;70.76;100366.45;2068479;86;30780;-68
2022/05/31 04:27:44;;;;;;;24.80;14.87;;;;;;;8.24;70.74;100367.72;2068569;86;30739;-70
2022/05/31 04:30:46;;;;;;;19.57;15.30;;;;;;;8.36;70.69;100368.56;2068508;86;34226;-70
2022/05/31 04:33:48;;;;;;;19.90;15.63;;;;;;;8.49;70.65;100360.09;2068516;84;30195;-71
2022/05/31 04:36:50;;;;;;;21.27;15.23;;;;;;;8.65;70.68;100367.89;2068954;86;27759;-68
2022/05/31 04:39:52;;;;;;;19.07;14.87;;;;;;;9.20;71.73;100361.63;2068565;85;29927;-70
2022/05/31 04:42:54;;;;;;;14.53;12.37;;;;;;;10.46;72.23;100361.75;2068980;85;31161;-69
2022/05/31 04:45:57;;;;;;;16.20;12.43;;;;;;;12.14;71.15;100359.91;2068878;86;34221;-65
2022/05/31 04:49:02;;;;;;;15.60;11.08;;;;;;;13.95;70.18;100355.19;2073385;85;29755;-65
2022/05/31 04:52:04;;;;;;;;;;;;;;;15.75;68.07;100361.75;2089704;85;27697;-67
2022/05/31 04:55:07;;;;;;;9.50;8.10;;;;;;;17.40;65.48;100356.02;2086840;85;29511;-68
2022/05/31 04:58:12;;;;;;;13.98;9.53;;;;;;;18.86;63.77;100356.64;2086365;85;32222;-68
2022/05/31 05:01:14;;;;;;;10.80;9.45;;;;;;;20.21;61.99;100354.62;2086483;85;34177;-69
2022/05/31 05:04:16;;;;;;;13.30;8.83;;;;;;;21.24;59.79;100349.78;2011206;88;29372;-71
2022/05/31 05:07:18;;;;;;;11.75;9.78;;;;;;;22.23;58.17;100346.81;2011767;87;27574;-69
2022/05/31 05:10:20;;;;;;;10.43;9.30;;;;;;;23.19;56.46;100344.94;2011337;88;29158;-68
2022/05/31 05:13:23;;;;;;;13.40;9.68;;;;;;;24.08;54.70;100348.15;2011553;88;30650;-68
2022/05/31 05:16:25;;;;;;;10.08;9.00;;;;;;;24.76;51.45;100338.67;2011273;88;34213;-67
2022/05/31 05:19:27;;;;;;;12.10;7.60;;;;;;;25.39;51.24;100347.28;2009915;87;30006;-67
2022/05/31 05:22:29;;;;;;;8.65;7.75;;;;;;;25.97;49.66;100343.95;2032460;87;28257;-67
2022/05/31 05:25:32;;;;;;;8.60;7.80;;;;;;;26.36;48.14;100341.78;2034675;87;29916;-68
2022/05/31 05:31:57;;;;;;;9.40;6.78;;;;;;;27.22;45.82;100336.76;2035177;87;34191;-68
2022/05/31 05:34:57;;;;;;;9.13;7.97;;;;;;;27.57;44.20;100335.78;2033909;86;29735;-68
2022/05/31 05:38:02;;;;;;;9.13;7.62;;;;;;;27.90;42.38;100336.81;2106634;84;27654;-67
2022/05/31 05:41:03;;;;;;;12.45;7.37;;;;;;;27.99;42.03;100334.82;2106755;84;28611;-67
2022/05/31 05:44:06;;;;;;;9.15;7.70;;;;;;;28.13;41.30;100340.03;2106797;84;31381;-68
2022/05/31 05:47:14;;;;;;;9.98;7.62;;;;;;;28.24;40.50;100333.19;2106408;84;34170;-68
2022/05/31 05:50:14;;;;;;;8.63;7.83;;;;;;;28.11;39.59;100339.37;2087732;84;30533;-68
2022/05/31 05:53:16;;;;;;;8.18;7.40;;;;;;;28.16;39.14;100340.16;2081863;85;27723;-68
2022/05/31 05:56:19;;;;;;;11.70;8.38;;;;;;;28.36;38.36;100337.69;2081824;85;29956;-67
2022/05/31 05:59:23;;;;;;;7.90;5.90;;;;;;;28.50;38.05;100335.94;2081771;85;31892;-67
2022/05/31 06:02:30;;;;;;;7.58;6.12;;;;;;;28.86;37.26;100337.86;2082173;85;33790;-67
2022/05/31 06:05:32;;;;;;;7.08;6.40;;;;;;;29.12;36.65;100336.44;2082221;85;29364;-67
2022/05/31 06:08:39;;;;;;;6.15;5.55;;;;;;;29.52;35.96;100339.55;2081939;85;27798;-67
2022/05/31 06:11:50;;;;;;;6.35;5.75;;;;;;;29.65;34.34;100341.56;2081576;85;28670;-67
2022/05/31 06:15:02;;;;;;;9.40;5.47;;;;;;;29.66;34.19;100348.80;2082207;85;32309;-68
2022/05/31 06:18:08;;;;;;;6.97;6.15;;;;;;;29.94;34.18;100345.15;2082225;84;33358;-68
2022/05/31 06:21:12;;;;;;;6.97;5.20;;;;;;;29.92;32.37;100342.28;2106890;84;29401;-68
2022/05/31 06:24:14;;;;;;;5.15;4.37;;;;;;;30.04;32.94;100343.44;2108802;84;27633;-68
2022/05/31 06:27:17;;;;;;;7.87;4.65;;;;;;;30.42;32.37;100344.89;2098826;84;29537;-68
2022/05/31 06:30:19;;;;;;;5.65;4.25;;;;;;;30.68;32.44;100336.41;2081764;85;31728;-67
2022/05/31 06:33:21;;;;;;;4.92;4.40;;;;;;;30.89;30.65;100341.77;2082187;85;32977;-68
2022/05/31 06:36:23;;;;;;;3.77;3.42;;;;;;;30.82;29.91;100345.06;2073493;84;30546;-68
2022/05/31 06:39:29;;;;;;;4.72;3.12;;;;;;;30.72;30.83;100345.97;2068528;86;28269;-68
2022/05/31 06:42:32;;;;;;;6.08;3.65;;;;;;;31.03;30.17;100345.41;2068105;85;29315;-68
2022/05/31 06:45:34;;;;;;;3.75;3.37;;;;;;;31.13;29.75;100349.67;2068921;86;31758;-70
2022/05/31 06:48:37;;;;;;;4.17;2.85;;;;;;;31.23;29.00;100352.92;2071688;85;33954;-69
2022/05/31 06:58:20;;;;;;;4.90;2.83;;;;;;;31.74;28.58;100341.74;2086790;84;29904;-69
2022/05/31 07:01:30;;;;;;;6.08;2.22;;;;;;;32.03;27.96;100344.25;2086861;85;31188;-68
2022/05/31 07:04:25;;;;;;;5.00;2.15;;;;;;;32.30;27.43;100342.27;2011129;87;32987;-66
2022/05/31 07:07:27;;;;;;;4.08;2.98;;;;;;;32.32;27.15;100343.42;2011511;87;29476;-67
2022/05/31 07:10:29;;;;;;;4.50;2.98;;;;;;;32.43;27.24;100337.22;2011544;88;27624;-68
2022/05/31 07:13:30;;;;;;;4.05;2.22;;;;;;;32.66;26.71;100338.58;2011493;88;29491;-66
2022/05/31 07:16:32;;;;;;;4.97;2.87;;;;;;;32.79;26.93;100343.20;2011501;88;32273;-67
2022/05/31 07:19:35;;;;;;;2.87;2.20;;;;;;;32.86;26.72;100334.31;2009298;88;33331;-67
2022/05/31 07:22:38;;;;;;;3.40;2.00;;;;;;;33.09;26.51;100330.11;2031557;87;29802;-68
2022/05/31 07:25:40;;;;;;;;;;;;;;;33.25;26.28;100332.89;2071070;86;27707;-67
2022/05/31 07:28:42;;;;;;;3.92;1.80;;;;;;;33.34;25.48;100330.97;2068804;86;28059;-68
2022/05/31 07:31:44;;;;;;;3.22;1.90;;;;;;;33.41;25.57;100335.66;2068308;85;32305;-67
2022/05/31 07:34:46;;;;;;;2.70;2.02;;;;;;;33.22;25.13;100330.56;2068524;86;33058;-67
2022/05/31 07:37:48;;;;;;;6.45;1.90;;;;;;;33.11;24.53;100331.58;2068441;85;29333;-68
2022/05/31 07:40:50;;;;;;;3.75;1.80;;;;;;;32.92;24.65;100333.44;2068741;85;27699;-69
2022/05/31 07:43:56;;;;;;;7.00;2.42;;;;;;;32.90;24.28;100332.80;2068700;86;28647;-68
2022/05/31 07:47:00;;;;;;;2.83;2.45;;;;;;;32.66;24.48;100324.19;2037248;87;31202;-67
2022/05/31 07:50:04;;;;;;;4.75;1.90;;;;;;;32.62;24.59;100327.08;2040604;87;33041;-67
2022/05/31 07:53:06;;;;;;;3.12;1.95;;;;;;;32.43;24.63;100326.13;2040907;87;29458;-67
2022/05/31 07:56:08;;;;;;;6.10;2.30;;;;;;;32.24;23.68;100321.80;2041264;87;27759;-68
2022/05/31 07:59:10;;;;;;;3.87;2.10;;;;;;;32.02;24.12;100316.22;2007421;88;29506;-68
2022/05/31 08:02:12;;;;;;;8.90;2.75;;;;;;;31.89;23.44;100321.25;1998023;89;31024;-68
2022/05/31 08:05:17;;;;;;;3.92;2.25;;;;;;;31.59;24.09;100313.39;2001332;88;32935;-66
2022/05/31 08:08:19;;;;;;;4.97;2.20;;;;;;;31.51;24.41;100308.94;2001446;88;29508;-68
2022/05/31 08:11:28;;;;;;;2.95;1.90;;;;;;;31.58;24.50;100316.72;2001342;88;27764;-69
2022/05/31 08:14:30;;;;;;;5.25;2.30;;;;;;;31.56;24.31;100309.15;2001014;88;29910;-68
2022/05/31 08:17:32;;;;;;;4.03;1.77;;;;;;;31.61;24.18;100312.66;1993083;88;32294;-69
2022/05/31 08:20:34;;;;;;;2.20;2.00;;;;;;;31.64;24.07;100313.06;1987485;88;32842;-69
2022/05/31 08:23:37;;;;;;;3.08;2.65;;;;;;;31.43;23.92;100316.09;1987553;89;29316;-69
2022/05/31 08:26:39;;;;;;;3.33;1.60;;;;;;;31.22;23.96;100307.77;1987611;89;27645;-67
2022/05/31 08:29:42;;;;;;;5.12;2.83;;;;;;;31.04;23.82;100317.20;1987486;88;29450;-67
2022/05/31 08:32:44;;;;;;;6.05;2.47;;;;;;;30.95;23.98;100316.55;1987326;88;31101;-68
2022/05/31 08:35:46;;;;;;;3.70;2.08;;;;;;;30.92;24.07;100308.15;1986178;89;33758;-67
2022/05/31 08:38:47;;;;;;;4.78;2.72;;;;;;;30.75;24.18;100305.45;1981415;89;30374;-68
2022/05/31 08:41:53;;;;;;;4.08;2.60;;;;;;;30.63;24.11;100305.75;1981616;89;27819;-67
2022/05/31 08:45:12;;;;;;;4.40;2.47;;;;;;;30.40;24.37;100297.24;1981517;88;28247;-68
2022/05/31 08:48:32;;;;;;;3.10;2.00;;;;;;;30.24;24.63;100298.48;1995126;89;31036;-67
2022/05/31 08:52:04;;;;;;;4.40;2.70;;;;;;;30.21;24.71;100297.50;1998262;89;33864;-68
2022/05/31 08:58:55;;;;;;;2.80;2.40;;;;;;;29.95;25.16;100294.92;1922237;91;27837;-67
2022/05/31 09:02:05;;;;;;;3.67;2.10;;;;;;;29.96;25.21;100285.06;1940212;91;28656;-68
2022/05/31 09:05:30;;;;;;;3.30;2.10;;;;;;;29.98;25.09;100277.43;1935888;91;31049;-68
2022/05/31 09:08:49;;;;;;;1.77;1.60;;;;;;;29.91;24.97;100269.59;1968280;90;32988;-67
2022/05/31 09:12:09;;;;;;;4.20;1.85;;;;;;;29.63;24.06;100277.92;1935824;91;30514;-68
2022/05/31 09:15:40;;;;;;;3.60;2.02;;;;;;;29.03;23.83;100280.55;1917629;92;27773;-69
2022/05/31 09:18:52;;;;;;;2.77;1.72;;;;;;;28.36;24.67;100282.58;1909255;92;28650;-68
2022/05/31 09:21:53;;;;;;;2.80;1.57;;;;;;;28.36;25.15;100275.70;1917544;92;31153;-68
2022/05/31 09:24:56;;;;;;;2.67;1.82;;;;;;;28.46;25.27;100276.77;1917678;92;33981;-67
2022/05/31 09:28:00;;;;;;;5.83;1.90;;;;;;;28.26;25.10;100272.38;1917533;92;30377;-67
2022/05/31 09:31:07;;;;;;;3.70;1.90;;;;;;;28.00;25.26;100268.22;1917737;92;27775;-67
2022/05/31 09:34:51;;;;;;;3.10;1.62;;;;;;;27.82;25.46;100265.34;1916838;92;29382;-68
2022/05/31 09:38:34;;;;;;;1.60;1.50;;;;;;;27.51;25.24;100257.26;1906876;92;31856;-69
2022/05/31 09:42:06;;;;;;;5.08;1.70;;;;;;;27.05;26.01;100255.47;1904801;93;33027;-66
2022/05/31 09:45:11;;;;;;;2.80;1.80;;;;;;;26.75;25.56;100252.56;1883701;93;30519;-68
2022/05/31 09:48:13;;;;;;;3.83;1.42;;;;;;;26.35;26.17;100246.67;1905513;93;27850;-68
2022/05/31 09:51:37;;;;;;;2.35;1.40;;;;;;;26.15;26.05;100238.55;1939438;87;28627;-66
2022/05/31 09:58:40;;;;;;;6.83;2.00;;;;;;;25.31;26.57;100242.56;2030877;87;34313;-67
2022/05/31 10:01:45;;;;;;;6.33;1.70;;;;;;;24.82;27.25;100232.52;2030194;87;29445;-68
2022/05/31 10:04:49;;;;;;;5.05;1.72;;;;;;;24.70;27.53;100240.22;2062836;85;27620;-67
2022/05/31 10:07:52;;;;;;;1.80;1.60;;;;;;;24.35;27.87;100234.81;2057197;86;29778;-69
2022/05/31 10:10:53;;;;;;;2.55;1.60;;;;;;;23.97;28.40;100229.76;2060005;86;31046;-71
2022/05/31 10:14:02;;;;;;;1.90;1.70;;;;;;;23.94;28.83;100224.58;2059995;86;33890;-68
2022/05/31 10:17:34;;;;;;;3.02;1.50;;;;;;;23.99;29.03;100224.14;2000275;88;29345;-68
2022/05/31 10:20:36;;;;;;;3.47;1.70;;;;;;;23.91;29.10;100211.75;2000390;89;27774;-68
2022/05/31 10:23:45;;;;;;;2.77;1.65;;;;;;;23.86;29.13;100211.38;1999926;88;29804;-65
2022/05/31 10:27:09;;;;;;;1.80;1.70;;;;;;;23.87;28.92;100214.46;2000027;89;31916;-67
2022/05/31 10:30:19;;;;;;;2.83;1.77;;;;;;;23.94;29.23;100208.16;1999512;87;32966;-70
2022/05/31 10:33:24;;;;;;;2.22;1.60;;;;;;;24.08;28.87;100203.09;1999171;89;29356;-65
2022/05/31 10:36:31;;;;;;;1.75;1.25;;;;;;;24.10;29.47;100205.16;2003218;87;27625;-66
2022/05/31 10:39:38;;;;;;;3.55;1.80;;;;;;;24.08;29.41;100203.09;2081964;85;28710;-65
2022/05/31 10:42:46;;;;;;;2.77;1.85;;;;;;;24.11;29.25;100206.37;2087231;84;31231;-66
2022/05/31 10:45:49;;;;;;;1.75;1.42;;;;;;;24.20;29.21;100212.73;2104631;84;30542;-66
2022/05/31 10:48:55;;;;;;;1.75;1.32;;;;;;;24.36;29.25;100200.09;2106411;84;29765;-65
2022/05/31 10:52:23;;;;;;;7.20;2.40;;;;;;;24.55;29.13;100207.12;2106737;84;27748;-65
2022/05/31 10:55:49;;;;;;;1.62;1.52;;;;;;;24.64;29.11;100198.39;2106469;84;29897;-66
2022/05/31 10:59:01;;;;;;;2.65;1.47;;;;;;;24.66;29.33;100196.34;2069205;85;31047;-65
2022/05/31 11:02:27;;;;;;;1.47;1.35;;;;;;;24.64;29.43;100186.06;2070588;86;34177;-64
2022/05/31 11:05:52;;;;;;;2.60;1.37;;;;;;;24.77;29.93;100179.58;2070619;86;30215;-64
2022/05/31 11:12:47;;;;;;;1.90;1.40;;;;;;;25.06;29.20;100170.47;1943995;91;29987;-65
2022/05/31 11:16:11;;;;;;;2.85;1.50;;;;;;;25.13;29.59;100170.13;1947980;91;32036;-65
2022/05/31 11:19:33;;;;;;;5.50;1.70;;;;;;;25.22;29.52;100166.85;1948042;91;33037;-65
2022/05/31 11:23:21;;;;;;;1.62;1.20;;;;;;;25.32;29.04;100159.27;1948034;90;30563;-65
2022/05/31 11:26:46;;;;;;;1.75;1.25;;;;;;;25.13;28.45;100160.00;1948448;91;28284;-66
2022/05/31 11:30:13;;;;;;;1.92;1.20;;;;;;;24.88;28.78;100155.09;1879094;94;28800;-65
2022/05/31 11:34:05;;;;;;;2.77;1.52;;;;;;;24.90;29.07;100150.30;1903342;93;31958;-66
2022/05/31 11:37:30;;;;;;;2.72;1.70;;;;;;;24.71;28.55;100148.78;1857649;95;32582;-65
2022/05/31 11:40:44;;;;;;;1.30;1.20;;;;;;;24.60;28.98;100146.34;1904586;92;30416;-67
2022/05/31 11:44:17;;;;;;;5.05;1.70;;;;;;;24.69;29.11;100148.06;1919009;92;27816;-67
2022/05/31 11:48:03;;;;;;;4.12;1.20;;;;;;;24.68;29.29;100141.71;1966109;90;29645;-66
2022/05/31 11:52:08;;;;;;;1.47;1.37;;;;;;;24.75;29.46;100141.06;1931933;92;31753;-66
2022/05/31 11:55:52;;;;;;;1.55;1.45;;;;;;;24.70;28.84;100142.44;1932191;92;32978;-69
2022/05/31 11:59:17;;;;;;;2.58;1.50;;;;;;;24.60;29.37;100139.00;1851706;96;30151;-66
2022/05/31 12:02:37;;;;;;;9.30;1.75;;;;;;;24.50;29.50;100129.58;1851635;96;27794;-66
2022/05/31 12:05:50;;;;;;;3.55;1.30;;;;;;;24.47;29.89;100118.97;1845196;95;28715;-65
2022/05/31 12:09:09;;;;;;;2.17;1.47;;;;;;;24.48;30.13;100117.09;1860705;95;31079;-66
2022/05/31 12:12:18;;;;;;;1.50;1.40;;;;;;;24.56;29.90;100117.95;1860780;95;32998;-66
2022/05/31 12:15:27;;;;;;;2.15;1.70;;;;;;;24.62;29.90;100114.16;1861098;95;30159;-67
2022/05/31 12:18:41;;;;;;;2.55;1.52;;;;;;;24.65;29.81;100112.45;1860360;95;27794;-67
2022/05/31 12:22:00;;;;;;;2.40;1.93;;;;;;;24.50;29.76;100105.44;1892248;92;28692;-67
2022/05/31 12:25:32;;;;;;;2.58;1.75;;;;;;;24.35;29.63;100116.23;1917761;92;31143;-66
2022/05/31 12:28:45;;;;;;;3.50;1.72;;;;;;;24.27;29.91;100108.35;1890376;90;32991;-66
2022/05/31 12:31:47;;;;;;;1.57;1.47;;;;;;;24.17;29.90;100103.56;1956644;91;30529;-66
2022/05/31 12:34:49;;;;;;;4.17;1.32;;;;;;;24.14;30.05;100098.95;1956848;91;27749;-71
2022/05/31 12:38:02;;;;;;;4.28;1.75;;;;;;;23.99;30.07;100090.05;1976897;88;29502;-67
2022/05/31 12:41:04;;;;;;;9.58;1.90;;;;;;;23.99;31.18;100086.45;2001140;87;31047;-67
2022/05/31 12:44:26;;;;;;;2.50;1.90;;;;;;;23.94;30.28;100079.56;2062075;85;33031;-69
2022/05/31 12:47:32;;;;;;;3.35;1.52;;;;;;;23.94;30.99;100071.88;2042723;87;28763;-68
2022/05/31 12:50:59;;;;;;;2.52;2.20;;;;;;;24.03;31.01;100077.72;2008075;88;28263;-67
2022/05/31 12:54:08;;;;;;;3.52;2.60;;;;;;;24.07;31.04;100072.78;2008797;88;28885;-66
2022/05/31 12:58:26;;;;;;;2.83;1.67;;;;;;;24.20;30.77;100077.72;2008174;88;31041;-65
2022/05/31 13:00:43;;;;;;;3.12;1.77;;;;;;;24.25;30.60;100072.08;2007141;88;34209;-66
2022/05/31 13:03:57;;;;;;;3.95;1.35;;;;;;;24.45;30.92;100069.52;1989667;88;28922;-65
2022/05/31 13:07:13;;;;;;;7.12;2.00;;;;;;;24.71;31.19;100061.96;2008464;88;27668;-65
2022/05/31 13:10:33;;;;;;;1.40;1.30;;;;;;;24.85;30.65;100052.67;2005887;88;28680;-66
2022/05/31 13:20:56;;;;;;;1.90;1.45;;;;;;;25.09;30.60;100057.21;2011449;88;30507;-67
2022/05/31 13:23:58;;;;;;;4.67;1.95;;;;;;;25.11;30.23;100052.94;2011472;86;28255;-66
2022/05/31 13:27:00;;;;;;;2.92;1.90;;;;;;;25.13;30.21;100054.99;2012118;88;28733;-67
2022/05/31 13:30:18;;;;;;;1.57;1.20;;;;;;;25.05;30.09;100049.03;2011750;87;31855;-67
2022/05/31 13:33:22;;;;;;;1.90;1.67;;;;;;;24.89;30.21;100051.30;2011605;88;32971;-67
2022/05/31 13:36:28;;;;;;;8.13;1.75;;;;;;;24.72;30.19;100058.19;2011790;87;29389;-68
2022/05/31 13:39:35;;;;;;;4.37;1.50;;;;;;;24.68;30.25;100049.94;2028552;86;28023;-68
2022/05/31 13:42:39;;;;;;;3.87;1.60;;;;;;;24.63;30.02;100047.39;2090351;84;29535;-69
2022/05/31 13:45:42;;;;;;;1.87;1.60;;;;;;;24.66;30.21;100049.79;2077271;84;31031;-68
2022/05/31 13:48:49;;;;;;;3.77;1.70;;;;;;;24.59;29.75;100046.89;2076821;85;33026;-68
2022/05/31 13:52:02;;;;;;;4.40;1.70;;;;;;;24.56;30.41;100049.98;2076958;85;29337;-66
2022/05/31 13:55:12;;;;;;;4.60;1.52;;;;;;;24.69;30.66;100039.33;2076806;85;27783;-66
2022/05/31 13:58:16;;;;;;;4.60;1.50;;;;;;;24.70;30.35;100037.49;2077125;85;28723;-67
2022/05/31 14:01:40;;;;;;;1.95;1.60;;;;;;;24.72;30.41;100033.54;2077019;85;31074;-67
2022/05/31 14:05:03;;;;;;;2.50;1.80;;;;;;;24.79;30.07;100026.84;2076840;85;33974;-68
2022/05/31 14:08:06;;;;;;;11.30;2.00;;;;;;;24.93;30.26;100021.14;2076632;85;29471;-66
2022/05/31 14:11:24;;;;;;;1.90;1.37;;;;;;;25.12;30.44;100020.39;2077084;85;28222;-67
2022/05/31 14:14:38;;;;;;;1.95;1.70;;;;;;;25.28;29.82;100020.30;2076720;84;28965;-69
2022/05/31 14:17:42;;;;;;;4.62;2.00;;;;;;;25.28;30.15;100012.08;2077143;85;31831;-67
2022/05/31 14:20:51;;;;;;;2.77;1.77;;;;;;;25.18;29.61;100003.20;2077086;84;33129;-67
2022/05/31 14:23:54;;;;;;;4.67;2.12;;;;;;;25.06;29.42;99997.29;2076929;85;29398;-68
2022/05/31 14:27:00;;;;;;;7.12;2.67;;;;;;;24.88;29.20;100000.27;2077132;85;27652;-68
2022/05/31 14:30:12;;;;;;;3.08;1.77;;;;;;;24.70;29.95;99997.77;2076940;85;29490;-67
2022/05/31 14:33:15;;;;;;;3.00;1.80;;;;;;;24.63;30.10;100005.81;2076571;85;31734;-68
2022/05/31 14:36:38;;;;;;;8.00;1.82;;;;;;;24.44;30.29;100000.19;2076854;85;33869;-68
2022/05/31 14:39:52;;;;;;;3.95;1.90;;;;;;;24.41;30.60;99988.20;2070170;85;29336;-67
2022/05/31 14:42:57;;;;;;;;;;;;;;;24.35;30.81;99985.66;2080710;85;27758;-68
2022/05/31 14:46:01;;;;;;;3.45;2.00;;;;;;;24.31;30.96;99976.11;2087467;85;28648;-69
2022/05/31 14:49:24;;;;;;;4.55;1.77;;;;;;;24.24;31.01;99980.03;2087140;85;32480;-68
2022/05/31 14:52:34;;;;;;;4.10;1.92;;;;;;;24.06;30.96;99982.97;2070806;85;32486;-68
2022/05/31 14:55:43;;;;;;;2.60;1.87;;;;;;;23.83;31.15;99981.41;2086417;84;29367;-69
2022/05/31 14:58:47;;;;;;;4.55;1.60;;;;;;;23.76;31.13;99982.61;2087319;85;27683;-68
2022/05/31 15:01:55;;;;;;;11.08;3.45;;;;;;;23.77;31.35;99974.75;2087050;84;28085;-70
2022/05/31 15:04:58;;;;;;;3.65;2.10;;;;;;;23.80;31.00;99965.33;2087064;85;31042;-69
2022/05/31 15:08:01;;;;;;;1.65;1.37;;;;;;;23.80;30.69;99965.33;2087332;85;34741;-67